Time;durP1;ratioP1;P1;durP2;ratioP2;P2;SDS_P1;SDS_P2;PMS_P1;PMS_P2;Temp;Humidity;BMP_temperature;BMP_pressure;BME280_temperature;BME280_humidity;BME280_pressure;Samples;Min_cycle;Max_cycle;Signal;HPM_P1;HPM_P2
2024/01/06 00:01:34;;;;;;;7.82;2.90;;;;;;;;;;4955857;28;20098;-78
2024/01/06 00:03:59;;;;;;;9.30;3.45;;;;;;;;;;4923799;29;20035;-78
2024/01/06 00:06:34;;;;;;;8.45;2.97;;;;;;;;;;4955543;28;20042;-78
2024/01/06 00:09:03;;;;;;;7.40;3.05;;;;;;;;;;4974774;28;20035;-77
2024/01/06 00:11:33;;;;;;;6.18;2.58;;;;;;;;;;4932373;29;20038;-79
2024/01/06 00:13:59;;;;;;;8.02;2.40;;;;;;;;;;4963059;28;20027;-79
2024/01/06 00:16:30;;;;;;;6.38;2.55;;;;;;;;;;4947198;29;20032;-78
2024/01/06 00:18:59;;;;;;;7.82;2.25;;;;;;;;;;4959545;29;20395;-79
2024/01/06 00:21:25;;;;;;;9.95;3.38;;;;;;;;;;4962025;29;20479;-78
2024/01/06 00:23:52;;;;;;;5.75;2.38;;;;;;;;;;4951566;28;20216;-79
2024/01/06 00:26:18;;;;;;;5.93;2.60;;;;;;;;;;4966663;28;20042;-79
2024/01/06 00:28:44;;;;;;;8.38;3.05;;;;;;;;;;4911093;29;20027;-79
2024/01/06 00:31:09;;;;;;;8.02;2.42;;;;;;;;;;4946751;29;20022;-80
2024/01/06 00:33:35;;;;;;;7.28;2.75;;;;;;;;;;4961670;28;20030;-79
2024/01/06 00:36:01;;;;;;;7.75;2.58;;;;;;;;;;4957277;28;20036;-77
2024/01/06 00:38:27;;;;;;;8.27;2.70;;;;;;;;;;4954995;29;20039;-79
2024/01/06 00:40:52;;;;;;;10.27;3.10;;;;;;;;;;4958926;29;20066;-78
2024/01/06 00:43:24;;;;;;;6.90;2.70;;;;;;;;;;4930808;29;20043;-79
2024/01/06 00:45:50;;;;;;;7.25;2.60;;;;;;;;;;4960010;29;20039;-78
2024/01/06 00:48:15;;;;;;;9.60;3.30;;;;;;;;;;4959610;29;20055;-79
2024/01/06 00:50:41;;;;;;;7.57;3.00;;;;;;;;;;4925849;29;20103;-78
2024/01/06 00:53:14;;;;;;;7.60;2.60;;;;;;;;;;4941790;28;20411;-77
2024/01/06 00:55:46;;;;;;;5.05;2.53;;;;;;;;;;4958601;29;20091;-79
2024/01/06 00:58:13;;;;;;;6.65;3.15;;;;;;;;;;4962671;28;20035;-78
2024/01/06 01:00:38;;;;;;;6.43;2.70;;;;;;;;;;4961310;29;20134;-77
2024/01/06 01:03:10;;;;;;;11.27;2.90;;;;;;;;;;4960254;29;20063;-80
2024/01/06 01:05:36;;;;;;;9.02;2.75;;;;;;;;;;4959995;29;20123;-79
2024/01/06 01:08:03;;;;;;;9.52;2.53;;;;;;;;;;4959057;28;20039;-78
2024/01/06 01:10:28;;;;;;;11.13;2.70;;;;;;;;;;4943303;29;20431;-79
2024/01/06 01:12:54;;;;;;;10.63;3.47;;;;;;;;;;4960313;29;20066;-78
2024/01/06 01:15:20;;;;;;;10.43;3.28;;;;;;;;;;4959912;29;20075;-79
2024/01/06 01:17:46;;;;;;;8.18;2.72;;;;;;;;;;4961433;28;20131;-80
2024/01/06 01:20:12;;;;;;;12.43;2.92;;;;;;;;;;4925591;29;20051;-78
2024/01/06 01:22:37;;;;;;;9.73;3.35;;;;;;;;;;4958136;28;20035;-78
2024/01/06 01:25:08;;;;;;;10.07;2.80;;;;;;;;;;4962654;28;20215;-78
2024/01/06 01:27:34;;;;;;;8.50;2.67;;;;;;;;;;4946828;29;20051;-79
2024/01/06 01:30:00;;;;;;;10.10;3.00;;;;;;;;;;4943215;29;20074;-78
2024/01/06 01:32:25;;;;;;;6.60;2.42;;;;;;;;;;4960042;29;20062;-78
2024/01/06 01:34:51;;;;;;;11.25;2.83;;;;;;;;;;4948032;29;20030;-80
2024/01/06 01:37:20;;;;;;;11.00;3.38;;;;;;;;;;4963182;28;20031;-79
2024/01/06 01:39:46;;;;;;;7.90;2.75;;;;;;;;;;4930805;29;20027;-77
2024/01/06 01:42:11;;;;;;;9.98;3.05;;;;;;;;;;4962624;29;20598;-78
2024/01/06 01:44:37;;;;;;;12.13;2.83;;;;;;;;;;4928162;29;20039;-79
2024/01/06 01:47:04;;;;;;;10.45;3.33;;;;;;;;;;4960133;28;20039;-79
2024/01/06 01:49:30;;;;;;;10.88;2.88;;;;;;;;;;4923324;29;20040;-77
2024/01/06 01:51:59;;;;;;;10.60;3.05;;;;;;;;;;4950956;29;20035;-79
2024/01/06 01:54:25;;;;;;;11.55;3.17;;;;;;;;;;4960286;28;20031;-79
2024/01/06 01:56:54;;;;;;;12.15;3.30;;;;;;;;;;4930898;29;20043;-80
2024/01/06 01:59:20;;;;;;;12.18;3.50;;;;;;;;;;4929829;29;20076;-78
2024/01/06 02:01:46;;;;;;;8.48;3.10;;;;;;;;;;4944875;29;20486;-78
2024/01/06 02:04:13;;;;;;;8.20;2.70;;;;;;;;;;4959408;28;20113;-78
2024/01/06 02:06:41;;;;;;;8.32;2.70;;;;;;;;;;4929826;29;20039;-77
2024/01/06 02:09:07;;;;;;;;;;;;;;;;;;4941812;29;20030;-78
2024/01/06 02:11:33;;;;;;;9.82;3.70;;;;;;;;;;4941698;29;19915;-77
2024/01/06 02:14:07;;;;;;;9.18;3.55;;;;;;;;;;4930434;29;20098;-77
2024/01/06 02:16:33;;;;;;;8.00;3.10;;;;;;;;;;4941326;29;20055;-77
2024/01/06 02:18:58;;;;;;;7.75;3.05;;;;;;;;;;4940489;29;20032;-77
2024/01/06 02:21:24;;;;;;;11.85;2.90;;;;;;;;;;4957164;28;20035;-78
2024/01/06 02:23:52;;;;;;;8.75;3.30;;;;;;;;;;4955939;28;20159;-77
2024/01/06 02:26:18;;;;;;;10.50;3.35;;;;;;;;;;4955917;29;20443;-77
2024/01/06 02:28:47;;;;;;;8.95;2.60;;;;;;;;;;4940024;29;20081;-77
2024/01/06 02:31:13;;;;;;;6.25;2.88;;;;;;;;;;4939610;28;20038;-77
2024/01/06 02:33:39;;;;;;;11.27;3.95;;;;;;;;;;4955273;29;20126;-78
2024/01/06 02:36:04;;;;;;;7.60;3.33;;;;;;;;;;4955513;29;20043;-78
2024/01/06 02:38:30;;;;;;;7.00;2.80;;;;;;;;;;4955292;29;20065;-78
2024/01/06 02:40:55;;;;;;;9.55;2.90;;;;;;;;;;4955407;29;20035;-78
2024/01/06 02:43:22;;;;;;;9.00;3.13;;;;;;;;;;4957405;29;20091;-78
2024/01/06 02:45:48;;;;;;;7.90;3.15;;;;;;;;;;4957282;29;20039;-77
2024/01/06 02:48:14;;;;;;;8.93;3.00;;;;;;;;;;4933128;29;20032;-78
2024/01/06 02:50:39;;;;;;;7.57;2.95;;;;;;;;;;4954554;28;20023;-78
2024/01/06 02:53:05;;;;;;;10.13;4.05;;;;;;;;;;4956430;29;20039;-78
2024/01/06 02:55:30;;;;;;;7.78;3.05;;;;;;;;;;4956239;29;20625;-78
2024/01/06 02:57:56;;;;;;;8.02;2.80;;;;;;;;;;4955000;29;20191;-78
2024/01/06 03:00:21;;;;;;;9.23;2.67;;;;;;;;;;4959184;28;20471;-77
2024/01/06 03:02:47;;;;;;;6.28;3.00;;;;;;;;;;4959427;28;20034;-78
2024/01/06 03:05:12;;;;;;;10.68;2.92;;;;;;;;;;4958094;28;20058;-78
2024/01/06 03:07:41;;;;;;;7.82;2.60;;;;;;;;;;4952189;29;20048;-78
2024/01/06 03:10:10;;;;;;;6.18;2.70;;;;;;;;;;4940077;29;20102;-78
2024/01/06 03:12:39;;;;;;;5.15;2.42;;;;;;;;;;4955354;28;20027;-78
2024/01/06 03:15:05;;;;;;;7.93;2.80;;;;;;;;;;4954029;28;20035;-78
2024/01/06 03:17:31;;;;;;;9.90;2.88;;;;;;;;;;4936080;29;20503;-78
2024/01/06 03:19:56;;;;;;;7.20;2.90;;;;;;;;;;4947941;29;20035;-77
2024/01/06 03:22:22;;;;;;;8.80;3.28;;;;;;;;;;4953258;28;20047;-77
2024/01/06 03:24:48;;;;;;;7.95;2.75;;;;;;;;;;4955011;28;20031;-78
2024/01/06 03:27:13;;;;;;;7.88;3.00;;;;;;;;;;4954319;28;20501;-78
2024/01/06 03:29:39;;;;;;;8.70;3.00;;;;;;;;;;4954563;28;20126;-78
2024/01/06 03:32:08;;;;;;;9.98;2.83;;;;;;;;;;4937290;29;20038;-77
2024/01/06 03:34:33;;;;;;;8.10;3.10;;;;;;;;;;4941473;29;20030;-78
2024/01/06 03:36:59;;;;;;;6.00;2.90;;;;;;;;;;4938115;29;20406;-78
2024/01/06 03:39:25;;;;;;;10.10;3.92;;;;;;;;;;4925769;29;20114;-78
2024/01/06 03:41:50;;;;;;;7.13;2.85;;;;;;;;;;4938043;29;20174;-78
2024/01/06 03:44:16;;;;;;;9.88;3.17;;;;;;;;;;4953648;28;20031;-77
2024/01/06 03:46:41;;;;;;;10.18;3.13;;;;;;;;;;4953791;29;20054;-78
2024/01/06 03:49:07;;;;;;;7.28;2.85;;;;;;;;;;4938596;29;20062;-77
2024/01/06 03:51:35;;;;;;;5.53;3.00;;;;;;;;;;4955244;28;20027;-77
2024/01/06 03:54:07;;;;;;;6.13;2.42;;;;;;;;;;4951849;29;20041;-77
2024/01/06 03:56:32;;;;;;;8.77;2.72;;;;;;;;;;4953930;28;20035;-77
2024/01/06 03:58:58;;;;;;;7.30;3.08;;;;;;;;;;4954904;28;20031;-77
2024/01/06 04:01:24;;;;;;;8.18;3.13;;;;;;;;;;4953678;29;20118;-78
2024/01/06 04:03:49;;;;;;;9.70;2.78;;;;;;;;;;4954580;28;20529;-76
2024/01/06 04:06:15;;;;;;;7.90;3.03;;;;;;;;;;4941442;29;20043;-79
2024/01/06 04:08:41;;;;;;;9.45;3.65;;;;;;;;;;4949824;29;20094;-78
2024/01/06 04:11:09;;;;;;;7.93;3.90;;;;;;;;;;4954477;29;20034;-79
2024/01/06 04:13:35;;;;;;;6.60;2.90;;;;;;;;;;4920809;29;20395;-77
2024/01/06 04:16:00;;;;;;;4.85;2.58;;;;;;;;;;4940172;29;20043;-77
2024/01/06 04:18:26;;;;;;;8.43;2.80;;;;;;;;;;4956537;29;20039;-78
2024/01/06 04:20:52;;;;;;;5.32;2.85;;;;;;;;;;4955254;28;20031;-79
2024/01/06 04:23:17;;;;;;;8.10;3.20;;;;;;;;;;4954637;28;20387;-79
2024/01/06 04:25:43;;;;;;;14.43;4.30;;;;;;;;;;4941612;29;20040;-77
2024/01/06 04:28:08;;;;;;;8.45;3.20;;;;;;;;;;4930439;29;20036;-79
2024/01/06 04:30:36;;;;;;;9.23;3.20;;;;;;;;;;4955839;28;20035;-77
2024/01/06 04:33:22;;;;;;;7.53;2.80;;;;;;;;;;4946306;29;20442;-77
2024/01/06 04:35:51;;;;;;;6.72;2.63;;;;;;;;;;4955079;29;20035;-78
2024/01/06 04:38:16;;;;;;;6.80;2.80;;;;;;;;;;4955956;28;20109;-79
2024/01/06 04:40:43;;;;;;;7.13;3.22;;;;;;;;;;4952940;29;20795;-78
2024/01/06 04:43:08;;;;;;;7.45;2.92;;;;;;;;;;4921001;29;20034;-78
2024/01/06 04:45:34;;;;;;;10.27;3.60;;;;;;;;;;4954329;29;20031;-78
2024/01/06 04:48:00;;;;;;;10.10;3.33;;;;;;;;;;4922254;29;20677;-77
2024/01/06 04:50:28;;;;;;;7.43;3.63;;;;;;;;;;4947594;29;20027;-79
2024/01/06 04:52:54;;;;;;;10.93;3.97;;;;;;;;;;4938579;29;20039;-76
2024/01/06 04:55:22;;;;;;;6.63;3.15;;;;;;;;;;4958003;29;20027;-79
2024/01/06 04:57:56;;;;;;;9.38;3.30;;;;;;;;;;4941950;29;20043;-77
2024/01/06 05:00:25;;;;;;;10.50;3.03;;;;;;;;;;4957482;28;20027;-78
2024/01/06 05:02:51;;;;;;;;;;;;;;;;;;4973879;28;20046;-78
2024/01/06 05:05:19;;;;;;;6.85;2.90;;;;;;;;;;4956288;28;19957;-78
2024/01/06 05:07:45;;;;;;;7.78;3.17;;;;;;;;;;4942551;29;20047;-78
2024/01/06 05:10:10;;;;;;;6.13;3.33;;;;;;;;;;4950123;29;20031;-77
2024/01/06 05:12:36;;;;;;;7.03;3.20;;;;;;;;;;4972928;28;20028;-78
2024/01/06 05:15:01;;;;;;;8.73;2.97;;;;;;;;;;4956946;28;20038;-78
2024/01/06 05:17:30;;;;;;;5.82;3.08;;;;;;;;;;4956264;29;20023;-79
2024/01/06 05:19:55;;;;;;;7.57;3.30;;;;;;;;;;4962662;28;20066;-78
2024/01/06 05:22:21;;;;;;;9.50;3.90;;;;;;;;;;4966846;28;20035;-79
2024/01/06 05:24:47;;;;;;;9.82;3.78;;;;;;;;;;4979911;28;20122;-78
2024/01/06 05:27:13;;;;;;;8.90;3.80;;;;;;;;;;4959053;29;20051;-78
2024/01/06 05:29:38;;;;;;;7.72;3.50;;;;;;;;;;4959790;29;20069;-78
2024/01/06 05:32:07;;;;;;;8.10;3.90;;;;;;;;;;4960690;28;20126;-77
2024/01/06 05:34:32;;;;;;;7.35;4.00;;;;;;;;;;4961410;29;20058;-77
2024/01/06 05:37:01;;;;;;;9.68;3.53;;;;;;;;;;4938404;29;20032;-78
2024/01/06 05:39:27;;;;;;;;;;;;;;;;;;4967879;28;20027;-78
2024/01/06 05:41:52;;;;;;;6.68;3.10;;;;;;;;;;4965228;29;19925;-79
2024/01/06 05:44:18;;;;;;;8.98;4.45;;;;;;;;;;4943148;29;20097;-77
2024/01/06 05:46:43;;;;;;;8.73;3.47;;;;;;;;;;4961852;28;20035;-77
2024/01/06 05:49:10;;;;;;;9.48;3.65;;;;;;;;;;4925981;29;20042;-77
2024/01/06 05:51:38;;;;;;;8.77;3.40;;;;;;;;;;4963964;28;20054;-78
2024/01/06 05:54:04;;;;;;;13.20;4.35;;;;;;;;;;4964243;29;20054;-78
2024/01/06 05:56:30;;;;;;;9.18;3.75;;;;;;;;;;4967625;29;20086;-78
2024/01/06 05:58:55;;;;;;;7.70;3.72;;;;;;;;;;4971480;29;20042;-77
2024/01/06 06:01:24;;;;;;;9.13;3.28;;;;;;;;;;4954335;29;20032;-78
2024/01/06 06:03:51;;;;;;;7.28;3.72;;;;;;;;;;4972391;29;20118;-77
2024/01/06 06:06:16;;;;;;;6.93;3.45;;;;;;;;;;4948174;29;20042;-78
2024/01/06 06:08:42;;;;;;;7.65;3.50;;;;;;;;;;4977168;28;20027;-78
2024/01/06 06:11:11;;;;;;;11.02;3.58;;;;;;;;;;4960293;28;20038;-77
2024/01/06 06:13:38;;;;;;;6.85;3.15;;;;;;;;;;4955979;28;20042;-76
2024/01/06 06:16:04;;;;;;;11.10;3.70;;;;;;;;;;4956986;29;20110;-77
2024/01/06 06:18:35;;;;;;;9.68;4.30;;;;;;;;;;4957909;28;20035;-79
2024/01/06 06:21:03;;;;;;;6.25;3.28;;;;;;;;;;4958900;28;20073;-79
2024/01/06 06:23:32;;;;;;;7.50;3.45;;;;;;;;;;4942134;29;20050;-78
2024/01/06 06:25:59;;;;;;;9.35;3.60;;;;;;;;;;4955277;29;20104;-79
2024/01/06 06:28:25;;;;;;;9.85;3.60;;;;;;;;;;4943494;29;20490;-79
2024/01/06 06:30:51;;;;;;;9.10;3.90;;;;;;;;;;4952714;28;20071;-78
2024/01/06 06:33:17;;;;;;;8.25;4.05;;;;;;;;;;4926433;29;20459;-79
2024/01/06 06:35:45;;;;;;;9.80;3.95;;;;;;;;;;4942267;29;20430;-79
2024/01/06 06:38:16;;;;;;;10.13;4.38;;;;;;;;;;4926537;29;20059;-78
2024/01/06 06:40:42;;;;;;;9.32;3.60;;;;;;;;;;4959995;28;20134;-76
2024/01/06 06:43:08;;;;;;;11.18;3.83;;;;;;;;;;4941245;29;20046;-78
2024/01/06 06:45:34;;;;;;;8.70;3.83;;;;;;;;;;4954888;29;20039;-78
2024/01/06 06:48:00;;;;;;;8.50;3.42;;;;;;;;;;4971019;28;20399;-79
2024/01/06 06:50:25;;;;;;;7.63;3.70;;;;;;;;;;4959070;29;20034;-78
2024/01/06 06:52:52;;;;;;;6.78;3.55;;;;;;;;;;4947572;29;20031;-76
2024/01/06 06:55:18;;;;;;;7.57;3.53;;;;;;;;;;4954751;28;20031;-78
2024/01/06 06:57:43;;;;;;;13.07;4.82;;;;;;;;;;4952419;29;20082;-77
2024/01/06 07:00:09;;;;;;;11.30;4.35;;;;;;;;;;4950409;29;20035;-79
2024/01/06 07:02:38;;;;;;;7.15;3.63;;;;;;;;;;4949498;28;20034;-79
2024/01/06 07:05:07;;;;;;;10.43;3.72;;;;;;;;;;4941080;29;20027;-79
2024/01/06 07:07:33;;;;;;;8.20;3.72;;;;;;;;;;4957225;28;20031;-79
2024/01/06 07:10:04;;;;;;;12.85;4.93;;;;;;;;;;4957040;28;20062;-78
2024/01/06 07:12:30;;;;;;;8.07;3.53;;;;;;;;;;4956792;28;20023;-79
2024/01/06 07:14:58;;;;;;;22.95;9.38;;;;;;;;;;4957533;28;20027;-78
2024/01/06 07:17:24;;;;;;;14.85;5.95;;;;;;;;;;4942586;29;20182;-79
2024/01/06 07:19:50;;;;;;;10.57;5.75;;;;;;;;;;4958070;28;20050;-79
2024/01/06 07:22:19;;;;;;;12.02;4.40;;;;;;;;;;4952475;29;20035;-78
2024/01/06 07:24:47;;;;;;;14.10;5.70;;;;;;;;;;4958295;28;20039;-78
2024/01/06 07:27:13;;;;;;;11.13;4.63;;;;;;;;;;4950789;28;20458;-78
2024/01/06 07:29:38;;;;;;;14.25;5.72;;;;;;;;;;4949941;28;20052;-78
2024/01/06 07:32:07;;;;;;;10.65;4.80;;;;;;;;;;4953039;29;20082;-78
2024/01/06 07:34:33;;;;;;;8.80;4.50;;;;;;;;;;4927139;29;20126;-78
2024/01/06 07:37:01;;;;;;;10.23;4.70;;;;;;;;;;4939800;29;20113;-78
2024/01/06 07:39:27;;;;;;;13.65;4.40;;;;;;;;;;4937516;29;20035;-79
2024/01/06 07:41:55;;;;;;;8.77;4.38;;;;;;;;;;4951069;29;20529;-78
2024/01/06 07:44:24;;;;;;;10.13;4.47;;;;;;;;;;4962677;28;20050;-77
2024/01/06 07:46:50;;;;;;;;;;;;;;;;;;4953077;29;20091;-78
2024/01/06 07:49:15;;;;;;;8.93;3.95;;;;;;;;;;4950327;29;19974;-78
2024/01/06 07:51:41;;;;;;;11.82;4.65;;;;;;;;;;4933987;29;20031;-78
2024/01/06 07:54:08;;;;;;;9.25;5.03;;;;;;;;;;4929809;29;20114;-78
2024/01/06 07:56:34;;;;;;;9.23;4.47;;;;;;;;;;4957629;28;20039;-79
2024/01/06 07:59:00;;;;;;;10.38;5.45;;;;;;;;;;4939724;29;20087;-80
2024/01/06 08:01:26;;;;;;;11.52;4.00;;;;;;;;;;4954790;29;20032;-78
2024/01/06 08:03:51;;;;;;;9.80;4.60;;;;;;;;;;4949646;29;20042;-78
2024/01/06 08:06:17;;;;;;;10.15;4.07;;;;;;;;;;4949921;29;20027;-79
2024/01/06 08:08:43;;;;;;;10.15;5.15;;;;;;;;;;4957501;29;20031;-78
2024/01/06 08:11:08;;;;;;;11.88;5.10;;;;;;;;;;4958892;29;20039;-78
2024/01/06 08:13:34;;;;;;;11.35;4.57;;;;;;;;;;4943034;29;20023;-79
2024/01/06 08:16:00;;;;;;;9.65;4.50;;;;;;;;;;4974679;28;20039;-78
2024/01/06 08:18:25;;;;;;;9.75;3.95;;;;;;;;;;4946162;29;20534;-79
2024/01/06 08:20:51;;;;;;;10.48;3.63;;;;;;;;;;4956522;28;20438;-78
2024/01/06 08:23:18;;;;;;;6.32;3.42;;;;;;;;;;4947497;29;20032;-79
2024/01/06 08:25:45;;;;;;;8.50;3.60;;;;;;;;;;4930203;29;20035;-79
2024/01/06 08:28:11;;;;;;;9.27;3.65;;;;;;;;;;4928310;29;20043;-78
2024/01/06 08:30:37;;;;;;;9.35;3.80;;;;;;;;;;4961450;28;20095;-79
2024/01/06 08:33:02;;;;;;;8.68;4.13;;;;;;;;;;4969673;28;20035;-78
2024/01/06 08:35:28;;;;;;;9.45;3.83;;;;;;;;;;4961811;29;20410;-77
2024/01/06 08:37:53;;;;;;;11.02;3.67;;;;;;;;;;4957893;29;20036;-78
2024/01/06 08:40:19;;;;;;;10.07;4.38;;;;;;;;;;4972477;28;20034;-78
2024/01/06 08:42:44;;;;;;;9.30;3.65;;;;;;;;;;4945978;29;20038;-78
2024/01/06 08:45:10;;;;;;;12.43;4.32;;;;;;;;;;4960375;28;20035;-78
2024/01/06 08:47:36;;;;;;;10.77;4.30;;;;;;;;;;4958435;29;20478;-79
2024/01/06 08:50:02;;;;;;;10.27;3.85;;;;;;;;;;4981770;28;20042;-79
2024/01/06 08:52:28;;;;;;;9.20;3.60;;;;;;;;;;4962908;29;20027;-78
2024/01/06 08:54:53;;;;;;;9.98;3.92;;;;;;;;;;4947674;29;20111;-78
2024/01/06 08:57:19;;;;;;;8.93;4.35;;;;;;;;;;4960026;29;20533;-78
2024/01/06 08:59:45;;;;;;;11.23;4.10;;;;;;;;;;4968216;28;20086;-78
2024/01/06 09:02:11;;;;;;;10.23;3.75;;;;;;;;;;4944699;29;20119;-78
2024/01/06 09:04:37;;;;;;;11.05;4.60;;;;;;;;;;4954531;29;20111;-78
2024/01/06 09:07:03;;;;;;;10.80;4.40;;;;;;;;;;4975430;28;20042;-78
2024/01/06 09:09:29;;;;;;;9.02;3.90;;;;;;;;;;4961063;29;20359;-78
2024/01/06 09:11:55;;;;;;;11.85;3.90;;;;;;;;;;4940565;29;20032;-79
2024/01/06 09:14:21;;;;;;;9.00;3.88;;;;;;;;;;4945075;29;20077;-78
2024/01/06 09:16:46;;;;;;;8.85;4.57;;;;;;;;;;4943735;29;20530;-78
2024/01/06 09:19:12;;;;;;;8.18;3.70;;;;;;;;;;4962505;28;20498;-78
2024/01/06 09:21:37;;;;;;;10.40;3.30;;;;;;;;;;4945363;29;20035;-79
2024/01/06 09:24:06;;;;;;;10.00;4.28;;;;;;;;;;4942069;29;20039;-79
2024/01/06 09:26:33;;;;;;;10.45;3.58;;;;;;;;;;4956786;29;20050;-79
2024/01/06 09:28:59;;;;;;;11.07;4.50;;;;;;;;;;4933130;29;20038;-79
2024/01/06 09:31:25;;;;;;;9.20;4.68;;;;;;;;;;4960321;28;20038;-78
2024/01/06 09:33:51;;;;;;;12.75;4.80;;;;;;;;;;4928459;29;20043;-77
2024/01/06 09:36:17;;;;;;;8.68;4.60;;;;;;;;;;4985476;23;20560;-80
2024/01/06 09:38:43;;;;;;;14.02;4.95;;;;;;;;;;4995298;28;20413;-78
2024/01/06 09:41:08;;;;;;;14.27;6.85;;;;;;;;;;4995341;28;20034;-79
2024/01/06 09:43:39;;;;;;;11.07;6.15;;;;;;;;;;4995696;28;20046;-78
2024/01/06 09:46:07;;;;;;;12.00;6.55;;;;;;;;;;4983102;28;20525;-78
2024/01/06 09:48:35;;;;;;;13.15;6.38;;;;;;;;;;4946265;28;20118;-79
2024/01/06 09:51:03;;;;;;;12.13;6.05;;;;;;;;;;4975468;28;20047;-80
2024/01/06 09:53:33;;;;;;;12.93;6.78;;;;;;;;;;4975268;28;20105;-80
2024/01/06 09:56:04;;;;;;;12.25;5.90;;;;;;;;;;4967702;28;20053;-79
2024/01/06 09:58:34;;;;;;;16.38;6.32;;;;;;;;;;4974880;28;20050;-79
2024/01/06 10:01:02;;;;;;;12.50;6.38;;;;;;;;;;4957189;28;20034;-80
2024/01/06 10:03:29;;;;;;;12.25;6.22;;;;;;;;;;4975404;28;20051;-80
2024/01/06 10:05:55;;;;;;;17.38;8.43;;;;;;;;;;4943810;28;20085;-79
2024/01/06 10:08:26;;;;;;;15.65;6.93;;;;;;;;;;4966988;28;20045;-80
2024/01/06 10:10:53;;;;;;;14.52;6.55;;;;;;;;;;4960247;28;20094;-78
2024/01/06 10:13:19;;;;;;;12.13;6.00;;;;;;;;;;4976459;28;20386;-79
2024/01/06 10:15:49;;;;;;;16.60;6.57;;;;;;;;;;4978663;28;20034;-80
2024/01/06 10:18:18;;;;;;;11.90;5.68;;;;;;;;;;4975268;28;20403;-80
2024/01/06 10:20:44;;;;;;;13.52;6.88;;;;;;;;;;4975687;28;20034;-78
2024/01/06 10:23:12;;;;;;;13.10;5.53;;;;;;;;;;4940024;29;20117;-78
2024/01/06 10:25:42;;;;;;;12.20;5.97;;;;;;;;;;4955686;29;20047;-79
2024/01/06 10:28:13;;;;;;;8.88;5.50;;;;;;;;;;4954301;28;20103;-79
2024/01/06 10:30:42;;;;;;;13.68;6.03;;;;;;;;;;4975771;28;20038;-78
2024/01/06 10:33:09;;;;;;;10.15;5.70;;;;;;;;;;4926455;29;20119;-80
2024/01/06 10:35:36;;;;;;;11.93;5.57;;;;;;;;;;4978493;28;20034;-79
2024/01/06 10:38:02;;;;;;;13.70;5.68;;;;;;;;;;5000049;28;20019;-78
2024/01/06 10:40:27;;;;;;;13.75;6.00;;;;;;;;;;5000115;28;20023;-79
2024/01/06 10:42:53;;;;;;;12.32;6.13;;;;;;;;;;4999590;28;20083;-79
2024/01/06 10:45:19;;;;;;;19.50;6.43;;;;;;;;;;4999221;28;20011;-79
2024/01/06 10:47:47;;;;;;;22.10;8.13;;;;;;;;;;4982872;28;20093;-79
2024/01/06 10:50:14;;;;;;;17.30;8.73;;;;;;;;;;4961385;28;20070;-80
2024/01/06 10:52:43;;;;;;;15.80;6.80;;;;;;;;;;4959482;28;20035;-80
2024/01/06 10:55:09;;;;;;;13.65;6.80;;;;;;;;;;4976044;28;20493;-79
2024/01/06 10:57:37;;;;;;;13.55;6.43;;;;;;;;;;4959096;28;20046;-80
2024/01/06 11:00:11;;;;;;;17.40;6.70;;;;;;;;;;4944640;28;20517;-80
2024/01/06 11:02:37;;;;;;;12.90;6.43;;;;;;;;;;4975555;28;20374;-79
2024/01/06 11:05:11;;;;;;;12.80;5.80;;;;;;;;;;4956063;29;20039;-80
2024/01/06 11:07:37;;;;;;;15.55;6.13;;;;;;;;;;4972119;28;20415;-78
2024/01/06 11:10:06;;;;;;;11.20;5.07;;;;;;;;;;4982650;28;20444;-79
2024/01/06 11:12:32;;;;;;;16.05;5.43;;;;;;;;;;4976090;28;20031;-79
2024/01/06 11:14:57;;;;;;;11.95;5.20;;;;;;;;;;4975720;28;20038;-79
2024/01/06 11:17:42;;;;;;;10.13;5.32;;;;;;;;;;4959082;28;20030;-78
2024/01/06 11:20:07;;;;;;;13.38;5.47;;;;;;;;;;4968492;28;20026;-78
2024/01/06 11:22:35;;;;;;;15.10;5.75;;;;;;;;;;4977047;28;20041;-78
2024/01/06 11:25:05;;;;;;;13.87;5.67;;;;;;;;;;4945803;28;20035;-78
2024/01/06 11:27:31;;;;;;;10.57;5.47;;;;;;;;;;4987621;28;20029;-78
2024/01/06 11:29:58;;;;;;;13.93;6.28;;;;;;;;;;4991187;28;20027;-78
2024/01/06 11:32:33;;;;;;;12.80;6.07;;;;;;;;;;4990309;28;20033;-77
2024/01/06 11:35:09;;;;;;;13.38;6.38;;;;;;;;;;4985469;28;20039;-78
2024/01/06 11:37:38;;;;;;;11.38;6.25;;;;;;;;;;4940676;29;20061;-77
2024/01/06 11:40:08;;;;;;;10.10;6.30;;;;;;;;;;4940889;29;20082;-77
2024/01/06 11:42:35;;;;;;;12.75;6.53;;;;;;;;;;4970450;28;20496;-78
2024/01/06 11:45:08;;;;;;;12.63;6.55;;;;;;;;;;4951918;28;20561;-78
2024/01/06 11:47:36;;;;;;;13.27;5.78;;;;;;;;;;4974867;28;20394;-77
2024/01/06 11:50:05;;;;;;;14.93;6.18;;;;;;;;;;4964956;28;20031;-77
2024/01/06 11:52:32;;;;;;;13.75;7.43;;;;;;;;;;4970029;28;20035;-78
2024/01/06 11:54:58;;;;;;;13.27;6.30;;;;;;;;;;4966005;28;20114;-76
2024/01/06 11:57:25;;;;;;;10.65;6.95;;;;;;;;;;4957425;28;20043;-77
2024/01/06 11:59:51;;;;;;;12.18;7.03;;;;;;;;;;4974224;28;20043;-79
2024/01/06 12:02:18;;;;;;;11.48;6.57;;;;;;;;;;4957042;28;20116;-78
2024/01/06 12:04:47;;;;;;;16.23;7.78;;;;;;;;;;4974303;28;20026;-78
2024/01/06 12:07:14;;;;;;;14.00;6.03;;;;;;;;;;4969870;28;20032;-76
2024/01/06 12:09:40;;;;;;;14.25;7.65;;;;;;;;;;4970130;28;20086;-78
2024/01/06 12:12:06;;;;;;;13.20;7.25;;;;;;;;;;4975167;28;20039;-78
2024/01/06 12:14:32;;;;;;;11.18;5.90;;;;;;;;;;4972811;28;20115;-77
2024/01/06 12:17:02;;;;;;;16.20;8.10;;;;;;;;;;4958666;28;20030;-78
2024/01/06 12:19:29;;;;;;;11.85;6.88;;;;;;;;;;4972717;28;20033;-77
2024/01/06 12:21:55;;;;;;;14.05;6.78;;;;;;;;;;4968280;28;20102;-77
2024/01/06 12:24:21;;;;;;;12.10;7.15;;;;;;;;;;4973089;28;20034;-78
2024/01/06 12:26:47;;;;;;;12.00;6.72;;;;;;;;;;4968886;28;20053;-77
2024/01/06 12:29:16;;;;;;;11.18;7.03;;;;;;;;;;4989791;28;20027;-79
2024/01/06 12:31:43;;;;;;;12.13;7.03;;;;;;;;;;4990023;28;20101;-78
2024/01/06 12:34:11;;;;;;;10.25;7.13;;;;;;;;;;4974512;28;20498;-78
2024/01/06 12:36:38;;;;;;;12.45;7.10;;;;;;;;;;4949883;29;20039;-78
2024/01/06 12:39:05;;;;;;;16.30;7.82;;;;;;;;;;4972461;28;20049;-78
2024/01/06 12:41:33;;;;;;;17.35;8.30;;;;;;;;;;4974243;28;20041;-77
2024/01/06 12:43:59;;;;;;;17.25;8.15;;;;;;;;;;4947558;29;20035;-78
2024/01/06 12:46:25;;;;;;;14.15;8.05;;;;;;;;;;4967615;28;20082;-76
2024/01/06 12:48:51;;;;;;;15.05;9.05;;;;;;;;;;4956275;28;20034;-79
2024/01/06 12:51:16;;;;;;;18.63;9.38;;;;;;;;;;4942168;28;20156;-78
2024/01/06 12:53:42;;;;;;;20.45;9.43;;;;;;;;;;4973093;28;20038;-78
2024/01/06 12:56:08;;;;;;;17.83;9.75;;;;;;;;;;4974538;28;20030;-78
2024/01/06 12:58:33;;;;;;;18.85;9.45;;;;;;;;;;4972773;28;20039;-77
2024/01/06 13:01:02;;;;;;;20.27;9.88;;;;;;;;;;4951628;28;20465;-79
2024/01/06 13:03:28;;;;;;;22.40;11.05;;;;;;;;;;4960659;28;20389;-78
2024/01/06 13:05:54;;;;;;;22.10;11.30;;;;;;;;;;4942094;28;20038;-77
2024/01/06 13:08:19;;;;;;;24.85;12.10;;;;;;;;;;4944878;29;20491;-78
2024/01/06 13:10:45;;;;;;;28.58;13.27;;;;;;;;;;4973322;28;20458;-77
2024/01/06 13:13:10;;;;;;;22.42;11.20;;;;;;;;;;4972271;28;20442;-79
2024/01/06 13:15:36;;;;;;;20.67;10.98;;;;;;;;;;4968355;28;20037;-79
2024/01/06 13:18:04;;;;;;;28.17;12.98;;;;;;;;;;4978549;28;20090;-79
2024/01/06 13:20:30;;;;;;;22.80;11.05;;;;;;;;;;4976820;28;20042;-79
2024/01/06 13:22:55;;;;;;;27.35;13.57;;;;;;;;;;4980089;28;20031;-79
2024/01/06 13:25:22;;;;;;;28.40;13.82;;;;;;;;;;4983748;28;20078;-78
2024/01/06 13:27:48;;;;;;;25.58;13.27;;;;;;;;;;4981957;28;20066;-78
2024/01/06 13:30:15;;;;;;;31.38;15.50;;;;;;;;;;5000094;28;20023;-79
2024/01/06 13:32:41;;;;;;;34.67;15.32;;;;;;;;;;4966880;28;20073;-78
2024/01/06 13:35:07;;;;;;;29.25;14.13;;;;;;;;;;4982068;28;20023;-78
2024/01/06 13:37:33;;;;;;;33.60;14.93;;;;;;;;;;4995449;28;20086;-78
2024/01/06 13:39:58;;;;;;;29.73;14.10;;;;;;;;;;4991342;28;20035;-78
2024/01/06 13:42:24;;;;;;;31.58;14.88;;;;;;;;;;4964969;28;20031;-79
2024/01/06 13:44:50;;;;;;;36.72;16.08;;;;;;;;;;4974178;28;20082;-78
2024/01/06 13:47:15;;;;;;;33.60;15.05;;;;;;;;;;4971619;28;20509;-78
2024/01/06 13:49:41;;;;;;;35.38;15.13;;;;;;;;;;4963143;28;20089;-76
2024/01/06 13:52:09;;;;;;;35.92;16.05;;;;;;;;;;4932291;29;20036;-78
2024/01/06 13:54:35;;;;;;;34.67;15.40;;;;;;;;;;4953987;28;20034;-77
2024/01/06 13:57:01;;;;;;;36.95;16.92;;;;;;;;;;4941464;29;20094;-78
2024/01/06 13:59:26;;;;;;;41.05;17.67;;;;;;;;;;4961717;28;20114;-78
2024/01/06 14:01:52;;;;;;;41.17;17.27;;;;;;;;;;4960108;28;20065;-77
2024/01/06 14:04:18;;;;;;;37.45;16.88;;;;;;;;;;4976869;28;20034;-78
2024/01/06 14:06:43;;;;;;;38.45;16.83;;;;;;;;;;4943036;29;20442;-78
2024/01/06 14:09:09;;;;;;;41.72;17.42;;;;;;;;;;4959250;28;20414;-78
2024/01/06 14:11:36;;;;;;;39.65;17.30;;;;;;;;;;4979521;28;20027;-78
2024/01/06 14:14:01;;;;;;;42.20;17.35;;;;;;;;;;4981797;28;20035;-78
2024/01/06 14:16:27;;;;;;;38.67;17.38;;;;;;;;;;4970770;28;20022;-78
2024/01/06 14:18:53;;;;;;;47.92;19.58;;;;;;;;;;4974186;28;20529;-78
2024/01/06 14:21:19;;;;;;;49.03;19.10;;;;;;;;;;4975875;28;20035;-78
2024/01/06 14:23:49;;;;;;;46.83;18.92;;;;;;;;;;4963164;28;20039;-77
2024/01/06 14:26:20;;;;;;;45.03;19.02;;;;;;;;;;4946132;29;20035;-79
2024/01/06 14:28:49;;;;;;;45.35;19.90;;;;;;;;;;4961946;28;20406;-78
2024/01/06 14:31:15;;;;;;;50.85;21.02;;;;;;;;;;4959254;28;20031;-78
2024/01/06 14:33:41;;;;;;;50.38;20.75;;;;;;;;;;4936743;28;20467;-79